Time;durP1;ratioP1;P1;durP2;ratioP2;P2;SDS_P1;SDS_P2;PMS_P1;PMS_P2;Temp;Humidity;BMP_temperature;BMP_pressure;BME280_temperature;BME280_humidity;BME280_pressure;Samples;Min_cycle;Max_cycle;Signal;HPM_P1;HPM_P2
2022/04/23 00:02:04;;;;;;;2.50;1.35;;;22.90;42.40;;;;;;4992716;28;20575;-64
2022/04/23 00:04:30;;;;;;;1.73;1.13;;;22.90;42.50;;;;;;4996295;28;20480;-65
2022/04/23 00:06:57;;;;;;;2.35;1.30;;;22.90;42.50;;;;;;4995609;28;20042;-63
2022/04/23 00:09:22;;;;;;;2.33;1.30;;;22.90;42.50;;;;;;4994568;28;20084;-63
2022/04/23 00:11:48;;;;;;;3.58;1.58;;;22.80;42.40;;;;;;4995631;28;20501;-61
2022/04/23 00:14:14;;;;;;;2.63;1.25;;;22.80;42.40;;;;;;4995886;28;20041;-63
2022/04/23 00:16:40;;;;;;;2.53;1.30;;;22.80;42.40;;;;;;4992161;28;20038;-61
2022/04/23 00:19:05;;;;;;;1.30;1.05;;;22.80;42.40;;;;;;4996668;28;20042;-65
2022/04/23 00:21:31;;;;;;;2.40;1.27;;;22.80;42.40;;;;;;4995737;28;20030;-66
2022/04/23 00:23:56;;;;;;;2.28;1.42;;;22.80;42.40;;;;;;4995402;28;20030;-62
2022/04/23 00:26:22;;;;;;;3.38;1.60;;;22.70;42.30;;;;;;4991461;28;20056;-64
2022/04/23 00:28:48;;;;;;;2.72;1.25;;;22.70;42.30;;;;;;4997176;28;20057;-63
2022/04/23 00:31:16;;;;;;;1.90;1.20;;;22.70;42.40;;;;;;4991971;28;21473;-63
2022/04/23 00:33:42;;;;;;;2.08;1.20;;;22.70;42.40;;;;;;4994242;28;20034;-63
2022/04/23 00:36:10;;;;;;;1.67;1.10;;;22.70;42.30;;;;;;4997118;28;20112;-65
2022/04/23 00:38:38;;;;;;;2.13;1.30;;;22.70;42.30;;;;;;4995445;28;20037;-62
2022/04/23 00:41:05;;;;;;;1.73;1.23;;;22.70;42.30;;;;;;4994597;28;20026;-63
2022/04/23 00:43:34;;;;;;;2.53;1.73;;;22.70;42.40;;;;;;4997216;28;20136;-63
2022/04/23 00:46:00;;;;;;;2.10;1.30;;;22.60;42.30;;;;;;4994942;28;20992;-63
2022/04/23 00:48:26;;;;;;;2.13;1.25;;;22.60;42.30;;;;;;4993685;28;20708;-64
2022/04/23 00:50:55;;;;;;;2.03;1.20;;;22.60;42.30;;;;;;4995738;28;20191;-64
2022/04/23 00:53:22;;;;;;;2.30;1.38;;;22.60;42.30;;;;;;4993717;28;21413;-62
2022/04/23 00:55:48;;;;;;;1.90;1.25;;;22.60;42.30;;;;;;4991665;28;20068;-63
2022/04/23 00:58:17;;;;;;;2.05;1.42;;;22.60;42.30;;;;;;4994953;28;20450;-64
2022/04/23 01:00:43;;;;;;;1.98;1.17;;;22.60;42.30;;;;;;4993175;28;20049;-63
2022/04/23 01:03:12;;;;;;;1.70;1.30;;;22.50;42.20;;;;;;4993813;28;20033;-65
2022/04/23 01:05:41;;;;;;;2.03;1.20;;;22.60;42.30;;;;;;4994504;28;20073;-64
2022/04/23 01:08:06;;;;;;;2.58;1.40;;;22.60;42.20;;;;;;4995844;28;20033;-63
2022/04/23 01:10:33;;;;;;;2.45;1.25;;;22.60;42.30;;;;;;4989939;28;20037;-64
2022/04/23 01:12:59;;;;;;;2.42;1.38;;;22.50;42.20;;;;;;4995482;28;20025;-63
2022/04/23 01:15:25;;;;;;;2.53;1.50;;;22.50;42.20;;;;;;4992914;28;20460;-66
2022/04/23 01:17:51;;;;;;;1.80;1.20;;;22.50;42.20;;;;;;4994532;28;20112;-65
2022/04/23 01:20:16;;;;;;;1.85;1.30;;;22.50;42.20;;;;;;4995389;28;20041;-65
2022/04/23 01:22:44;;;;;;;2.83;1.42;;;22.50;42.20;;;;;;4992461;28;20138;-62
2022/04/23 01:25:13;;;;;;;2.08;1.20;;;22.50;42.20;;;;;;4995934;28;20513;-65
2022/04/23 01:27:40;;;;;;;1.98;1.13;;;22.50;42.20;;;;;;4993899;28;20026;-65
2022/04/23 01:30:07;;;;;;;2.35;1.20;;;22.50;42.20;;;;;;4990736;28;20033;-63
2022/04/23 01:32:34;;;;;;;1.88;1.15;;;22.50;42.20;;;;;;4994267;28;20116;-64
2022/04/23 01:34:59;;;;;;;2.25;1.30;;;22.50;42.70;;;;;;4995226;28;20036;-62
2022/04/23 01:37:25;;;;;;;2.70;1.30;;;22.40;42.10;;;;;;4996154;28;20037;-62
2022/04/23 01:39:51;;;;;;;2.03;1.20;;;22.40;42.20;;;;;;4993889;28;20026;-65
2022/04/23 01:42:19;;;;;;;2.92;1.30;;;22.40;42.20;;;;;;4994778;28;20150;-63
2022/04/23 01:44:49;;;;;;;2.17;1.20;;;22.40;42.20;;;;;;4992229;28;20192;-64
2022/04/23 01:47:16;;;;;;;2.15;1.20;;;22.40;42.20;;;;;;4991302;28;20107;-64
2022/04/23 01:49:42;;;;;;;1.38;1.00;;;22.40;42.20;;;;;;4993502;28;20029;-65
2022/04/23 01:52:08;;;;;;;1.98;1.10;;;22.40;42.20;;;;;;4991672;28;20053;-61
2022/04/23 01:54:34;;;;;;;2.42;1.33;;;22.40;42.20;;;;;;4993592;28;20060;-64
2022/04/23 01:57:01;;;;;;;2.00;1.27;;;22.40;42.20;;;;;;4993556;28;20034;-64
2022/04/23 01:59:27;;;;;;;1.98;1.20;;;22.40;42.10;;;;;;4987514;28;20049;-63
2022/04/23 02:01:53;;;;;;;2.03;1.15;;;22.40;42.10;;;;;;4988349;28;20513;-65
2022/04/23 02:04:18;;;;;;;2.08;1.20;;;22.30;42.10;;;;;;4993858;28;20100;-65
2022/04/23 02:06:44;;;;;;;1.80;1.10;;;22.30;42.10;;;;;;4994378;28;20069;-64
2022/04/23 02:09:10;;;;;;;2.28;1.13;;;22.30;42.10;;;;;;4991533;28;20034;-62
2022/04/23 02:11:36;;;;;;;2.15;1.10;;;22.30;42.10;;;;;;4993026;28;20036;-64
2022/04/23 02:14:02;;;;;;;1.70;1.20;;;22.30;42.10;;;;;;4993204;28;20140;-64
2022/04/23 02:16:31;;;;;;;2.05;1.13;;;22.30;42.10;;;;;;4988861;28;20192;-64
2022/04/23 02:18:57;;;;;;;2.25;1.20;;;22.30;42.10;;;;;;4992242;28;20038;-64
2022/04/23 02:21:27;;;;;;;1.67;1.10;;;22.30;42.10;;;;;;4993222;28;20033;-63
2022/04/23 02:23:53;;;;;;;2.83;1.10;;;22.30;42.10;;;;;;5024341;28;20089;-63
2022/04/23 02:26:22;;;;;;;1.52;1.10;;;22.30;42.10;;;;;;4993401;28;20034;-64
2022/04/23 02:28:48;;;;;;;1.67;1.10;;;22.30;42.10;;;;;;4995171;28;20501;-64
2022/04/23 02:31:14;;;;;;;1.83;1.10;;;22.30;42.10;;;;;;4991800;28;20119;-64
2022/04/23 02:33:40;;;;;;;2.55;1.10;;;22.30;42.10;;;;;;4994812;28;20037;-64
2022/04/23 02:36:06;;;;;;;2.67;1.08;;;22.30;42.10;;;;;;4993862;28;20029;-63
2022/04/23 02:38:39;;;;;;;1.90;1.20;;;22.20;42.00;;;;;;4991552;28;20038;-65
2022/04/23 02:41:06;;;;;;;1.30;1.00;;;22.30;42.00;;;;;;4995554;28;20169;-63
2022/04/23 02:43:31;;;;;;;1.88;1.00;;;22.20;42.00;;;;;;4998481;28;20182;-63
2022/04/23 02:45:58;;;;;;;1.70;1.10;;;22.30;42.10;;;;;;4993435;28;20203;-63
2022/04/23 02:48:24;;;;;;;1.90;1.20;;;22.20;42.00;;;;;;4996342;28;20366;-65
2022/04/23 02:50:49;;;;;;;1.73;1.10;;;22.20;42.00;;;;;;4998633;28;20030;-64
2022/04/23 02:53:16;;;;;;;1.90;1.10;;;22.20;42.00;;;;;;4996368;28;20026;-63
2022/04/23 02:55:42;;;;;;;2.30;1.00;;;22.20;42.00;;;;;;4996218;28;20033;-64
2022/04/23 02:58:09;;;;;;;2.08;1.10;;;22.20;42.00;;;;;;4997963;28;20041;-65
2022/04/23 03:00:39;;;;;;;1.38;1.00;;;22.20;42.00;;;;;;4994684;28;20041;-63
2022/04/23 03:03:07;;;;;;;1.80;1.20;;;22.10;41.90;;;;;;4997234;28;20030;-64
2022/04/23 03:05:32;;;;;;;1.70;1.10;;;22.10;42.00;;;;;;4996301;28;20432;-63
2022/04/23 03:08:02;;;;;;;1.50;1.00;;;22.10;42.00;;;;;;4998820;28;20034;-61
2022/04/23 03:10:29;;;;;;;1.65;1.02;;;22.10;42.00;;;;;;4997713;28;20124;-61
2022/04/23 03:12:57;;;;;;;1.77;1.02;;;22.10;41.90;;;;;;4995953;28;20038;-63
2022/04/23 03:15:26;;;;;;;1.15;0.90;;;22.10;41.90;;;;;;4990982;28;20030;-65
2022/04/23 03:18:08;;;;;;;2.10;1.00;;;22.10;41.90;;;;;;4998185;28;20044;-64
2022/04/23 03:20:34;;;;;;;1.50;0.95;;;22.10;41.90;;;;;;4996728;28;20062;-65
2022/04/23 03:23:00;;;;;;;1.10;0.88;;;22.10;41.90;;;;;;4995302;28;20158;-63
2022/04/23 03:25:26;;;;;;;1.33;0.93;;;22.10;41.90;;;;;;4996882;28;20148;-63
2022/04/23 03:27:52;;;;;;;1.40;1.00;;;22.10;41.90;;;;;;4998171;28;20339;-63
2022/04/23 03:30:20;;;;;;;1.40;1.00;;;22.10;41.90;;;;;;4994132;28;20021;-62
2022/04/23 03:32:46;;;;;;;1.45;1.00;;;22.10;41.90;;;;;;4996975;28;20041;-65
2022/04/23 03:35:11;;;;;;;1.60;1.10;;;22.10;41.90;;;;;;4996752;28;20187;-65
2022/04/23 03:37:40;;;;;;;1.58;0.98;;;22.10;41.90;;;;;;4996909;28;20041;-64
2022/04/23 03:40:08;;;;;;;1.42;1.02;;;22.00;41.80;;;;;;4996673;28;20112;-63
2022/04/23 03:42:34;;;;;;;1.25;1.00;;;22.10;41.90;;;;;;4996565;28;20041;-65
2022/04/23 03:45:01;;;;;;;1.83;1.05;;;22.10;42.40;;;;;;4991871;28;20092;-64
2022/04/23 03:47:26;;;;;;;1.17;1.00;;;22.10;41.80;;;;;;4996218;28;20042;-63
2022/04/23 03:49:52;;;;;;;1.20;1.00;;;22.00;41.80;;;;;;4979333;28;20103;-65
2022/04/23 03:52:18;;;;;;;2.33;1.08;;;22.00;41.80;;;;;;4996277;28;20030;-62
2022/04/23 03:54:43;;;;;;;1.25;0.90;;;22.00;41.80;;;;;;4994509;28;20057;-63
2022/04/23 03:57:09;;;;;;;1.50;0.85;;;22.00;41.80;;;;;;4998595;28;20544;-65
2022/04/23 03:59:37;;;;;;;1.30;0.95;;;22.00;41.80;;;;;;4995639;28;20102;-65
2022/04/23 04:02:04;;;;;;;1.10;0.90;;;22.00;41.80;;;;;;4992560;28;20164;-65
2022/04/23 04:04:31;;;;;;;1.50;1.00;;;22.00;41.80;;;;;;4993646;28;20060;-63
2022/04/23 04:06:58;;;;;;;1.10;0.90;;;22.00;41.80;;;;;;4998182;28;20034;-62
2022/04/23 04:09:23;;;;;;;0.98;0.80;;;22.00;41.80;;;;;;4997505;28;20029;-64
2022/04/23 04:12:01;;;;;;;1.30;1.00;;;22.00;41.80;;;;;;4996082;28;20489;-64
2022/04/23 04:14:30;;;;;;;1.30;0.90;;;22.00;41.80;;;;;;4990528;28;20107;-64
2022/04/23 04:17:03;;;;;;;1.63;1.00;;;22.00;41.80;;;;;;4993258;28;20041;-65
2022/04/23 04:19:29;;;;;;;1.13;0.90;;;22.00;41.80;;;;;;4996940;28;20113;-64
2022/04/23 04:21:55;;;;;;;1.30;0.90;;;22.00;41.80;;;;;;4997988;28;20081;-63
2022/04/23 04:24:22;;;;;;;1.23;0.98;;;22.00;41.80;;;;;;4993256;28;21638;-64
2022/04/23 04:26:48;;;;;;;0.80;0.80;;;21.90;41.70;;;;;;4997374;28;20042;-63
2022/04/23 04:29:14;;;;;;;0.95;0.80;;;21.90;41.70;;;;;;4996730;28;20026;-65
2022/04/23 04:31:49;;;;;;;1.15;0.90;;;22.00;41.70;;;;;;4994585;28;20042;-63
2022/04/23 04:34:30;;;;;;;0.88;0.80;;;21.90;41.70;;;;;;4995549;28;20018;-65
2022/04/23 04:37:03;;;;;;;1.30;0.93;;;22.00;41.70;;;;;;4996995;28;20132;-64
2022/04/23 04:39:29;;;;;;;1.20;0.80;;;21.90;41.70;;;;;;4986045;28;20034;-65
2022/04/23 04:41:54;;;;;;;1.77;1.08;;;21.90;41.70;;;;;;4994418;28;20034;-63
2022/04/23 04:44:20;;;;;;;1.20;1.10;;;21.90;41.70;;;;;;4994604;28;20048;-63
2022/04/23 04:46:45;;;;;;;1.20;0.90;;;21.90;41.70;;;;;;4993250;28;20136;-61
2022/04/23 04:49:11;;;;;;;1.13;0.82;;;21.90;41.70;;;;;;4996287;28;20030;-66
2022/04/23 04:51:37;;;;;;;1.13;0.90;;;21.90;41.70;;;;;;4996694;28;20117;-65
2022/04/23 04:54:04;;;;;;;0.80;0.80;;;21.90;41.70;;;;;;4993980;28;20026;-64
2022/04/23 04:56:29;;;;;;;1.00;0.90;;;21.90;41.70;;;;;;4997741;28;20022;-63
2022/04/23 04:58:55;;;;;;;1.20;0.85;;;21.90;41.70;;;;;;4995298;28;20038;-64
2022/04/23 05:01:21;;;;;;;1.25;0.88;;;21.90;41.60;;;;;;4991666;28;20045;-65
2022/04/23 05:03:47;;;;;;;0.95;0.80;;;21.90;41.70;;;;;;4990154;28;20034;-64
2022/04/23 05:06:13;;;;;;;0.80;0.80;;;21.90;41.60;;;;;;4994508;28;20021;-61
2022/04/23 05:08:39;;;;;;;1.13;0.90;;;21.90;41.70;;;;;;4995032;28;20470;-65
2022/04/23 05:11:05;;;;;;;1.20;0.82;;;21.90;41.60;;;;;;4994127;28;20026;-64
2022/04/23 05:13:31;;;;;;;0.90;0.80;;;21.90;41.60;;;;;;4992481;28;20494;-63
2022/04/23 05:15:58;;;;;;;1.27;0.90;;;21.90;41.60;;;;;;4991300;28;20041;-63
2022/04/23 05:18:24;;;;;;;1.35;0.90;;;21.80;41.60;;;;;;4993449;28;20030;-63
2022/04/23 05:20:50;;;;;;;1.30;0.90;;;21.90;41.70;;;;;;4993626;28;20029;-60
2022/04/23 05:23:15;;;;;;;0.93;0.77;;;21.80;41.60;;;;;;4995324;28;20497;-63
2022/04/23 05:25:41;;;;;;;1.23;1.00;;;21.80;41.60;;;;;;4990562;28;20451;-63
2022/04/23 05:28:07;;;;;;;1.45;0.90;;;21.80;41.60;;;;;;4995772;28;20351;-64
2022/04/23 05:30:39;;;;;;;1.20;0.90;;;21.90;41.70;;;;;;4989022;28;20054;-64
2022/04/23 05:33:05;;;;;;;1.40;0.90;;;21.80;41.60;;;;;;4994156;28;20433;-64
2022/04/23 05:35:31;;;;;;;0.93;0.80;;;21.80;41.60;;;;;;4993582;28;20034;-63
2022/04/23 05:37:56;;;;;;;1.15;0.90;;;21.80;41.60;;;;;;4995042;28;20113;-64
2022/04/23 05:40:22;;;;;;;1.10;0.90;;;21.80;41.60;;;;;;4994940;28;20041;-64
2022/04/23 05:42:48;;;;;;;1.02;0.82;;;21.80;41.60;;;;;;4995114;28;20367;-63
2022/04/23 05:45:13;;;;;;;1.38;0.80;;;21.80;41.60;;;;;;4988840;28;20029;-64
2022/04/23 05:47:41;;;;;;;1.08;0.80;;;21.80;41.60;;;;;;4992749;28;20418;-62
2022/04/23 05:50:08;;;;;;;1.20;0.90;;;21.80;41.60;;;;;;4996318;28;20026;-64
2022/04/23 05:52:34;;;;;;;1.45;0.80;;;21.80;41.60;;;;;;4995690;28;20117;-64
2022/04/23 05:55:00;;;;;;;1.75;0.90;;;21.80;41.60;;;;;;4994850;28;20025;-62
2022/04/23 05:57:26;;;;;;;1.15;0.88;;;21.80;41.60;;;;;;4996939;28;20030;-61
2022/04/23 05:59:52;;;;;;;1.23;0.90;;;21.80;41.60;;;;;;4994528;28;20339;-63
2022/04/23 06:02:17;;;;;;;1.05;0.88;;;21.80;41.60;;;;;;4993242;28;20038;-63
2022/04/23 06:04:45;;;;;;;1.45;1.00;;;21.80;41.60;;;;;;4987026;28;20021;-64
2022/04/23 06:07:11;;;;;;;1.10;0.73;;;21.80;41.60;;;;;;4988431;28;20041;-63
2022/04/23 06:09:36;;;;;;;1.45;1.00;;;21.70;41.60;;;;;;4993074;28;20033;-65
2022/04/23 06:12:02;;;;;;;1.83;1.00;;;21.80;41.60;;;;;;4994195;28;20509;-64
2022/04/23 06:14:28;;;;;;;1.83;1.05;;;21.70;41.60;;;;;;4989802;28;20034;-63
2022/04/23 06:16:53;;;;;;;1.30;1.00;;;21.70;41.60;;;;;;4989613;28;20167;-61
2022/04/23 06:19:19;;;;;;;1.30;1.00;;;21.80;41.60;;;;;;4993431;28;20053;-64
2022/04/23 06:21:44;;;;;;;1.10;0.90;;;21.70;41.60;;;;;;4989139;28;20046;-63
2022/04/23 06:24:10;;;;;;;1.13;0.80;;;21.70;41.60;;;;;;4993596;28;20026;-60
2022/04/23 06:26:36;;;;;;;1.60;1.02;;;21.70;41.60;;;;;;4992004;28;20061;-64
2022/04/23 06:29:01;;;;;;;1.00;0.90;;;21.70;41.60;;;;;;4992331;28;20696;-63
2022/04/23 06:31:27;;;;;;;1.58;0.90;;;21.70;41.60;;;;;;4990154;28;20251;-65
2022/04/23 06:33:53;;;;;;;1.00;0.90;;;21.70;41.60;;;;;;4992539;28;20038;-64
2022/04/23 06:36:19;;;;;;;0.93;0.82;;;21.70;41.60;;;;;;4989661;28;20085;-63
2022/04/23 06:38:44;;;;;;;1.20;0.90;;;21.70;41.60;;;;;;4993563;28;20026;-64
2022/04/23 06:41:10;;;;;;;1.63;0.95;;;21.70;41.60;;;;;;4992310;28;20038;-63
2022/04/23 06:43:35;;;;;;;2.28;0.90;;;21.70;41.60;;;;;;4992848;28;20168;-63
2022/04/23 06:46:01;;;;;;;1.42;0.85;;;21.70;41.60;;;;;;4988169;28;20458;-62
2022/04/23 06:48:27;;;;;;;1.75;0.93;;;21.70;41.60;;;;;;4993203;28;20084;-63
2022/04/23 06:50:52;;;;;;;1.92;1.00;;;21.70;41.60;;;;;;4991912;28;20037;-63
2022/04/23 06:53:18;;;;;;;1.30;0.90;;;21.70;41.60;;;;;;4987256;28;20045;-64
2022/04/23 06:55:43;;;;;;;1.13;0.90;;;21.70;41.60;;;;;;4991509;28;20076;-61
2022/04/23 06:58:10;;;;;;;1.20;0.90;;;21.70;41.60;;;;;;4992219;28;20038;-64
2022/04/23 07:00:38;;;;;;;2.58;1.20;;;21.70;41.60;;;;;;4987303;28;20060;-63
2022/04/23 07:03:03;;;;;;;1.05;0.70;;;21.70;41.60;;;;;;4993533;28;20466;-64
2022/04/23 07:05:29;;;;;;;1.35;0.90;;;21.70;41.60;;;;;;4992082;28;20026;-62
2022/04/23 07:07:59;;;;;;;2.15;1.02;;;21.70;41.60;;;;;;4991134;28;20411;-62
2022/04/23 07:10:29;;;;;;;0.95;0.85;;;21.70;42.10;;;;;;4985337;28;20114;-63
2022/04/23 07:12:55;;;;;;;;;;;21.70;41.60;;;;;;4992075;28;20034;-63
2022/04/23 07:15:22;;;;;;;1.25;0.95;;;21.70;41.60;;;;;;4983823;28;19925;-63
2022/04/23 07:17:49;;;;;;;1.67;1.00;;;21.60;41.60;;;;;;4989650;28;20494;-63
2022/04/23 07:20:18;;;;;;;1.30;0.90;;;21.60;41.60;;;;;;4992806;28;20486;-63
2022/04/23 07:24:03;;;;;;;1.08;0.93;;;21.60;41.60;;;;;;4993331;28;20061;-61
2022/04/23 07:25:36;;;;;;;1.35;0.93;;;21.70;41.60;;;;;;4991645;28;20069;-64
2022/04/23 07:28:03;;;;;;;1.23;1.00;;;21.60;41.60;;;;;;4994542;28;20044;-62
2022/04/23 07:30:29;;;;;;;1.50;1.00;;;21.60;41.60;;;;;;4995260;28;20062;-64
2022/04/23 07:32:57;;;;;;;1.05;0.90;;;21.60;41.70;;;;;;4991675;28;20042;-65
2022/04/23 07:38:14;;;;;;;1.17;0.90;;;21.60;41.60;;;;;;4997776;28;20254;-63
2022/04/23 07:40:41;;;;;;;1.00;0.90;;;21.60;41.60;;;;;;4996828;28;20513;-62
2022/04/23 07:43:12;;;;;;;1.40;0.90;;;21.60;41.60;;;;;;4996275;28;20485;-65
2022/04/23 07:45:41;;;;;;;1.40;0.90;;;21.60;41.60;;;;;;4995070;28;20505;-64
2022/04/23 07:48:09;;;;;;;1.27;0.80;;;21.60;41.70;;;;;;4997210;28;20129;-63
2022/04/23 07:50:35;;;;;;;1.70;1.00;;;21.60;41.60;;;;;;4997872;28;20026;-64
2022/04/23 07:53:02;;;;;;;1.20;0.80;;;21.60;41.60;;;;;;4992617;28;20096;-63
2022/04/23 07:55:33;;;;;;;1.45;0.95;;;21.60;41.60;;;;;;4994656;28;20056;-65
2022/04/23 07:57:59;;;;;;;1.33;0.90;;;21.60;41.60;;;;;;4995335;28;20026;-62
2022/04/23 08:00:29;;;;;;;1.17;0.88;;;21.60;41.60;;;;;;4995063;28;20033;-63
2022/04/23 08:02:55;;;;;;;0.93;0.77;;;21.60;41.60;;;;;;4992223;28;20057;-65
2022/04/23 08:05:21;;;;;;;1.38;1.00;;;21.60;41.70;;;;;;4996252;28;20407;-63
2022/04/23 08:07:47;;;;;;;1.85;0.90;;;21.60;41.60;;;;;;4997001;28;20041;-62
2022/04/23 08:10:12;;;;;;;1.40;0.90;;;21.60;41.60;;;;;;4997033;28;20022;-62
2022/04/23 08:12:38;;;;;;;1.00;0.90;;;21.60;41.70;;;;;;4995933;28;20346;-65
2022/04/23 08:15:05;;;;;;;1.25;0.90;;;21.50;41.60;;;;;;4994948;28;20022;-65
2022/04/23 08:17:30;;;;;;;1.42;1.10;;;21.60;41.60;;;;;;4993947;28;20048;-62
2022/04/23 08:19:56;;;;;;;0.95;0.80;;;21.60;41.90;;;;;;4990733;28;20026;-62
2022/04/23 08:22:22;;;;;;;0.80;0.80;;;21.50;41.60;;;;;;4989102;28;20058;-63
2022/04/23 08:24:47;;;;;;;1.17;0.95;;;21.60;41.60;;;;;;4988893;28;20030;-64
2022/04/23 08:27:13;;;;;;;1.30;1.00;;;21.60;41.90;;;;;;4987692;28;20040;-63
2022/04/23 08:32:23;;;;;;;1.10;0.80;;;21.80;41.80;;;;;;4988181;28;21765;-61
2022/04/23 08:34:48;;;;;;;2.72;1.00;;;21.90;41.60;;;;;;4990908;28;20038;-63
2022/04/23 08:37:14;;;;;;;2.92;1.10;;;22.00;41.50;;;;;;4992001;28;20038;-62
2022/04/23 08:39:42;;;;;;;1.75;1.05;;;22.10;41.50;;;;;;4991692;28;20038;-63
2022/04/23 08:42:09;;;;;;;1.42;1.00;;;22.20;41.40;;;;;;4990692;28;20029;-65
2022/04/23 08:44:38;;;;;;;1.45;0.93;;;22.30;41.30;;;;;;4988619;28;20042;-64
2022/04/23 08:47:04;;;;;;;1.92;1.20;;;22.40;41.30;;;;;;4989863;28;20036;-63
2022/04/23 08:49:32;;;;;;;1.38;1.00;;;22.50;41.10;;;;;;4989624;28;20435;-62
2022/04/23 08:52:26;;;;;;;1.52;1.00;;;22.60;41.00;;;;;;4992886;28;20026;-64
2022/04/23 08:54:53;;;;;;;3.13;1.17;;;22.80;40.80;;;;;;4989595;28;20034;-63
2022/04/23 08:57:20;;;;;;;1.92;1.05;;;22.80;40.60;;;;;;4988307;28;20113;-65
2022/04/23 08:59:53;;;;;;;1.83;1.00;;;22.90;40.50;;;;;;4991783;28;20089;-61
2022/04/23 09:02:19;;;;;;;2.38;1.00;;;22.90;40.50;;;;;;4987212;28;20521;-64
2022/04/23 09:04:44;;;;;;;2.28;1.10;;;22.90;40.60;;;;;;4989384;28;20041;-62
2022/04/23 09:07:27;;;;;;;3.55;1.20;;;22.90;40.60;;;;;;4990914;28;20038;-62
2022/04/23 09:09:54;;;;;;;2.22;1.20;;;22.90;40.50;;;;;;4991766;28;20121;-63
2022/04/23 09:12:26;;;;;;;2.88;1.20;;;23.00;40.60;;;;;;4990632;28;20030;-62
2022/04/23 09:15:03;;;;;;;3.22;1.20;;;23.00;40.60;;;;;;4990403;28;20037;-64
2022/04/23 09:25:47;;;;;;;1.80;1.00;;;23.00;40.70;;;;;;4989637;28;20037;-63
2022/04/23 09:28:29;;;;;;;2.30;1.05;;;23.00;40.80;;;;;;4990041;28;20037;-64
2022/04/23 09:30:56;;;;;;;1.70;1.00;;;23.00;40.80;;;;;;4986266;28;20037;-64
2022/04/23 09:33:29;;;;;;;3.22;1.20;;;23.10;40.80;;;;;;4990955;28;20026;-63
2022/04/23 09:36:00;;;;;;;1.92;1.00;;;23.10;40.80;;;;;;4989393;28;20117;-64
2022/04/23 09:38:26;;;;;;;3.63;1.08;;;23.10;40.90;;;;;;4995036;28;20496;-63
2022/04/23 09:40:57;;;;;;;2.47;1.10;;;23.10;41.00;;;;;;4995143;28;20918;-65
2022/04/23 09:43:30;;;;;;;3.38;1.10;;;23.10;41.10;;;;;;4995428;28;20056;-61
2022/04/23 09:46:05;;;;;;;2.05;0.80;;;23.10;41.10;;;;;;4992320;28;20120;-62
2022/04/23 09:48:31;;;;;;;4.53;1.55;;;23.10;41.20;;;;;;4993826;28;20977;-63
2022/04/23 09:50:57;;;;;;;3.67;1.10;;;23.10;41.20;;;;;;4994665;28;20124;-62
2022/04/23 09:53:27;;;;;;;3.42;1.00;;;23.10;41.30;;;;;;4993004;28;20204;-62
2022/04/23 09:56:03;;;;;;;2.70;1.00;;;23.10;41.30;;;;;;5021314;28;20790;-65
2022/04/23 09:58:31;;;;;;;3.92;1.30;;;23.10;41.30;;;;;;4990065;28;20040;-63
2022/04/23 10:00:57;;;;;;;3.03;1.20;;;23.10;41.40;;;;;;4986657;28;20784;-62
2022/04/23 10:03:31;;;;;;;1.73;0.90;;;23.10;41.40;;;;;;4984398;28;20030;-63
2022/04/23 10:05:57;;;;;;;3.53;1.10;;;23.20;41.50;;;;;;4988189;28;20040;-63
2022/04/23 10:08:34;;;;;;;4.05;1.08;;;23.20;41.50;;;;;;4989950;28;20033;-64
2022/04/23 10:11:28;;;;;;;2.10;0.90;;;23.20;41.60;;;;;;4989873;28;20029;-64
2022/04/23 10:14:03;;;;;;;3.08;1.05;;;23.10;41.40;;;;;;4984528;28;20162;-65
2022/04/23 10:16:31;;;;;;;1.98;1.00;;;23.10;41.50;;;;;;4984254;28;20119;-64
2022/04/23 10:18:57;;;;;;;2.38;1.00;;;23.10;41.50;;;;;;5018497;28;20026;-63
2022/04/23 10:21:31;;;;;;;1.75;1.00;;;23.10;41.80;;;;;;4989617;28;20129;-64
2022/04/23 10:24:15;;;;;;;1.70;0.75;;;23.10;41.50;;;;;;4988203;28;20124;-66
2022/04/23 10:26:49;;;;;;;1.58;0.90;;;23.10;41.40;;;;;;4986656;28;20129;-64
2022/04/23 10:29:22;;;;;;;3.25;1.30;;;23.10;41.30;;;;;;4988759;28;20077;-63
2022/04/23 10:32:10;;;;;;;1.60;0.90;;;23.00;41.20;;;;;;5016866;28;20042;-63
2022/04/23 10:34:36;;;;;;;2.15;0.90;;;23.00;41.30;;;;;;4984720;28;20034;-63
2022/04/23 10:37:18;;;;;;;1.73;1.00;;;23.00;41.30;;;;;;4985866;28;20030;-65
2022/04/23 10:39:51;;;;;;;2.50;1.13;;;23.00;41.30;;;;;;4985783;28;20033;-64
2022/04/23 10:42:21;;;;;;;1.80;1.10;;;23.00;41.30;;;;;;4989396;28;20069;-62
2022/04/23 10:44:48;;;;;;;2.78;0.93;;;23.00;41.30;;;;;;4982294;28;20711;-64
2022/04/23 10:47:29;;;;;;;2.25;1.00;;;23.00;41.30;;;;;;4986836;28;20025;-63
2022/04/23 10:50:18;;;;;;;3.92;1.30;;;23.00;41.30;;;;;;4991338;28;20026;-65
2022/04/23 10:52:45;;;;;;;2.78;0.93;;;23.00;41.40;;;;;;4994724;28;20124;-65
2022/04/23 10:55:13;;;;;;;2.50;1.00;;;23.00;41.40;;;;;;4990954;28;20045;-64
2022/04/23 10:57:39;;;;;;;2.28;0.90;;;23.00;41.40;;;;;;4994079;28;20033;-62
2022/04/23 11:00:12;;;;;;;2.35;0.98;;;23.00;41.40;;;;;;4991453;28;20026;-64
2022/04/23 11:02:39;;;;;;;2.05;0.90;;;23.00;41.30;;;;;;4993590;28;20053;-62
2022/04/23 11:13:51;;;;;;;2.22;0.90;;;22.90;41.20;;;;;;4993982;28;19975;-65
2022/04/23 11:16:19;;;;;;;1.77;1.00;;;23.00;41.20;;;;;;4991394;28;20077;-65
2022/04/23 11:18:46;;;;;;;1.73;0.98;;;22.90;41.10;;;;;;4995479;28;20042;-62
2022/04/23 11:21:21;;;;;;;1.92;0.93;;;22.90;41.10;;;;;;4995153;28;20459;-62
2022/04/23 11:23:47;;;;;;;1.77;0.90;;;22.90;41.10;;;;;;4995372;28;20490;-64
2022/04/23 11:26:18;;;;;;;2.15;0.93;;;22.90;41.00;;;;;;4999661;28;20036;-64
2022/04/23 11:28:46;;;;;;;1.38;0.90;;;22.90;41.00;;;;;;4995278;28;20491;-64
2022/04/23 11:31:16;;;;;;;3.67;1.00;;;22.90;41.00;;;;;;4990742;28;20073;-64
2022/04/23 11:33:58;;;;;;;2.13;1.00;;;22.90;41.00;;;;;;4995797;28;20037;-64
2022/04/23 11:36:28;;;;;;;1.30;0.90;;;22.90;41.00;;;;;;4996403;28;20026;-63
2022/04/23 11:38:54;;;;;;;;;;;22.90;41.00;;;;;;4998112;28;20026;-64
2022/04/23 11:41:30;;;;;;;2.47;1.20;;;22.90;41.00;;;;;;4997374;28;19928;-62
2022/04/23 11:43:56;;;;;;;2.03;1.10;;;22.90;41.00;;;;;;4998584;28;20038;-62
2022/04/23 11:46:22;;;;;;;2.60;0.90;;;22.90;41.00;;;;;;4988834;28;20030;-64
2022/04/23 11:48:49;;;;;;;2.30;1.02;;;22.90;41.00;;;;;;4998077;28;20520;-65
2022/04/23 11:51:16;;;;;;;2.38;1.00;;;22.80;40.90;;;;;;4996564;28;20036;-65
2022/04/23 11:53:58;;;;;;;2.45;0.98;;;22.80;41.00;;;;;;4995679;28;20036;-64
2022/04/23 11:56:36;;;;;;;2.20;0.93;;;22.80;41.00;;;;;;4996533;28;20069;-65
2022/04/23 11:59:07;;;;;;;1.98;1.20;;;22.80;41.00;;;;;;4997017;28;20092;-65
2022/04/23 12:01:33;;;;;;;2.15;1.10;;;22.80;41.00;;;;;;4993420;28;20117;-64
2022/04/23 12:03:59;;;;;;;3.83;1.13;;;22.80;41.00;;;;;;4997803;28;20616;-63
2022/04/23 12:06:25;;;;;;;2.17;1.10;;;22.80;41.00;;;;;;4995441;28;20022;-63
2022/04/23 12:09:03;;;;;;;1.83;1.02;;;22.80;41.00;;;;;;4999349;28;20175;-62
2022/04/23 12:11:28;;;;;;;1.48;1.00;;;22.80;41.00;;;;;;4996530;28;20034;-65
2022/04/23 12:13:54;;;;;;;1.70;0.95;;;22.80;41.00;;;;;;4994054;28;20088;-66
2022/04/23 12:16:41;;;;;;;3.63;1.20;;;22.80;41.00;;;;;;4992208;28;20026;-66
2022/04/23 12:19:12;;;;;;;2.22;1.10;;;22.80;41.00;;;;;;4997543;28;20034;-65
2022/04/23 12:21:39;;;;;;;1.90;1.00;;;22.80;41.10;;;;;;4995899;28;20038;-64
2022/04/23 12:24:07;;;;;;;1.73;0.98;;;22.70;41.00;;;;;;4996921;28;20482;-65
2022/04/23 12:26:37;;;;;;;1.60;1.00;;;22.70;41.00;;;;;;4996248;28;20142;-62
2022/04/23 12:43:18;;;;;;;1.30;0.90;;;22.70;41.10;;;;;;4995829;28;20115;-64
2022/04/23 12:45:44;;;;;;;1.83;1.05;;;22.70;41.00;;;;;;4988058;28;20021;-65
2022/04/23 12:48:10;;;;;;;1.65;1.00;;;22.70;41.00;;;;;;4992723;28;20030;-62
2022/04/23 12:50:35;;;;;;;1.52;0.90;;;22.70;41.00;;;;;;4993783;28;20490;-63
2022/04/23 12:53:01;;;;;;;1.63;1.00;;;22.70;41.10;;;;;;4994142;28;20148;-65
2022/04/23 12:55:36;;;;;;;2.60;1.10;;;22.70;41.00;;;;;;4995100;28;20279;-64
2022/04/23 12:58:08;;;;;;;1.45;0.95;;;22.60;41.00;;;;;;4994413;28;20025;-65
2022/04/23 13:00:41;;;;;;;1.65;1.08;;;22.60;41.00;;;;;;4991150;28;20049;-62
2022/04/23 13:03:32;;;;;;;1.42;1.00;;;22.60;41.00;;;;;;4995025;28;20072;-64
2022/04/23 13:05:58;;;;;;;1.33;0.98;;;22.60;41.00;;;;;;4984265;28;20037;-65
2022/04/23 13:11:27;;;;;;;1.75;1.20;;;22.60;41.00;;;;;;4983505;28;20065;-63
2022/04/23 13:14:05;;;;;;;1.80;1.00;;;22.60;41.00;;;;;;4991650;28;20030;-63
2022/04/23 13:16:36;;;;;;;2.22;1.10;;;22.60;41.00;;;;;;4992485;28;20109;-62
2022/04/23 13:19:03;;;;;;;1.50;1.00;;;22.60;41.00;;;;;;4991675;28;20061;-61
2022/04/23 13:21:33;;;;;;;1.50;1.00;;;22.60;41.00;;;;;;4993312;28;21051;-65
2022/04/23 13:23:59;;;;;;;1.85;1.00;;;22.60;41.00;;;;;;4993117;28;20033;-61
2022/04/23 13:26:30;;;;;;;1.50;1.10;;;22.60;41.00;;;;;;4992000;28;20384;-63
2022/04/23 13:28:57;;;;;;;1.67;1.13;;;22.60;41.00;;;;;;4989644;28;20092;-62
2022/04/23 13:31:23;;;;;;;1.50;0.95;;;22.60;41.00;;;;;;4985278;28;20061;-66
2022/04/23 13:33:49;;;;;;;1.92;1.10;;;22.60;41.00;;;;;;4987697;28;20053;-62